sensor_id;sensor_type;location;lat;lon;timestamp;temperature;humidity
48946;DHT22;34999;50.940;3.998;2023-03-03T00:00:36;0.60;99.90
48946;DHT22;34999;50.940;3.998;2023-03-03T00:03:06;0.60;99.90
48946;DHT22;34999;50.940;3.998;2023-03-03T00:05:35;0.50;99.90
48946;DHT22;34999;50.940;3.998;2023-03-03T00:08:04;0.50;99.90
48946;DHT22;34999;50.940;3.998;2023-03-03T00:10:33;0.40;99.90
48946;DHT22;34999;50.940;3.998;2023-03-03T00:13:01;0.40;99.90
48946;DHT22;34999;50.940;3.998;2023-03-03T00:15:31;0.30;99.90
48946;DHT22;34999;50.940;3.998;2023-03-03T00:17:59;0.30;99.90
48946;DHT22;34999;50.940;3.998;2023-03-03T00:20:33;0.30;99.90
48946;DHT22;34999;50.940;3.998;2023-03-03T00:23:14;0.20;99.90
48946;DHT22;34999;50.940;3.998;2023-03-03T00:25:44;0.20;99.90
48946;DHT22;34999;50.940;3.998;2023-03-03T00:28:19;0.20;99.90
48946;DHT22;34999;50.940;3.998;2023-03-03T00:30:50;0.10;99.90
48946;DHT22;34999;50.940;3.998;2023-03-03T00:33:25;0.10;99.90
48946;DHT22;34999;50.940;3.998;2023-03-03T00:35:55;0.10;99.90
48946;DHT22;34999;50.940;3.998;2023-03-03T00:38:24;0.00;99.90
48946;DHT22;34999;50.940;3.998;2023-03-03T00:40:53;0.00;99.90
48946;DHT22;34999;50.940;3.998;2023-03-03T00:43:23;0.00;99.90
48946;DHT22;34999;50.940;3.998;2023-03-03T00:45:53;-0.10;99.90
48946;DHT22;34999;50.940;3.998;2023-03-03T00:48:25;-0.10;99.90
48946;DHT22;34999;50.940;3.998;2023-03-03T00:50:55;-0.10;99.90
48946;DHT22;34999;50.940;3.998;2023-03-03T00:53:24;-0.10;99.90
48946;DHT22;34999;50.940;3.998;2023-03-03T00:55:53;-0.10;99.90
48946;DHT22;34999;50.940;3.998;2023-03-03T00:58:22;0.00;99.90
48946;DHT22;34999;50.940;3.998;2023-03-03T01:00:54;-0.10;99.90
48946;DHT22;34999;50.940;3.998;2023-03-03T01:03:25;0.00;99.90
48946;DHT22;34999;50.940;3.998;2023-03-03T01:05:54;-0.10;99.90
48946;DHT22;34999;50.940;3.998;2023-03-03T01:08:22;-0.10;99.90
48946;DHT22;34999;50.940;3.998;2023-03-03T01:10:52;-0.10;99.90
48946;DHT22;34999;50.940;3.998;2023-03-03T01:13:23;-0.20;99.90
48946;DHT22;34999;50.940;3.998;2023-03-03T01:15:53;-0.20;99.90
48946;DHT22;34999;50.940;3.998;2023-03-03T01:18:21;-0.30;99.90
48946;DHT22;34999;50.940;3.998;2023-03-03T01:20:50;-0.30;99.90
48946;DHT22;34999;50.940;3.998;2023-03-03T01:23:18;-0.30;99.90
48946;DHT22;34999;50.940;3.998;2023-03-03T01:25:46;-0.30;99.90
48946;DHT22;34999;50.940;3.998;2023-03-03T01:28:15;-0.40;99.90
48946;DHT22;34999;50.940;3.998;2023-03-03T01:30:43;-0.40;99.90
48946;DHT22;34999;50.940;3.998;2023-03-03T01:33:13;-0.50;99.90
48946;DHT22;34999;50.940;3.998;2023-03-03T01:35:43;-0.50;99.90
48946;DHT22;34999;50.940;3.998;2023-03-03T01:38:12;-0.50;99.90
48946;DHT22;34999;50.940;3.998;2023-03-03T01:40:40;-0.50;99.90
48946;DHT22;34999;50.940;3.998;2023-03-03T01:43:11;-0.50;99.90
48946;DHT22;34999;50.940;3.998;2023-03-03T01:48:44;-0.60;99.90
48946;DHT22;34999;50.940;3.998;2023-03-03T01:51:18;-0.70;99.90
48946;DHT22;34999;50.940;3.998;2023-03-03T01:53:50;-0.70;99.90
48946;DHT22;34999;50.940;3.998;2023-03-03T01:56:18;-0.70;99.90
48946;DHT22;34999;50.940;3.998;2023-03-03T01:58:50;-0.70;99.90
48946;DHT22;34999;50.940;3.998;2023-03-03T02:01:22;-0.70;99.90
48946;DHT22;34999;50.940;3.998;2023-03-03T02:03:53;-0.70;99.90
48946;DHT22;34999;50.940;3.998;2023-03-03T02:06:24;-0.70;99.90
48946;DHT22;34999;50.940;3.998;2023-03-03T02:08:58;-0.60;99.90
48946;DHT22;34999;50.940;3.998;2023-03-03T02:11:29;-0.70;99.90
48946;DHT22;34999;50.940;3.998;2023-03-03T02:13:58;-0.70;99.90
48946;DHT22;34999;50.940;3.998;2023-03-03T02:16:26;-0.70;99.90
48946;DHT22;34999;50.940;3.998;2023-03-03T02:18:56;-0.70;99.90
48946;DHT22;34999;50.940;3.998;2023-03-03T02:21:26;-0.80;99.90
48946;DHT22;34999;50.940;3.998;2023-03-03T02:24:02;-0.80;99.90
48946;DHT22;34999;50.940;3.998;2023-03-03T02:26:36;-0.80;99.90
48946;DHT22;34999;50.940;3.998;2023-03-03T02:29:06;-0.80;99.90
48946;DHT22;34999;50.940;3.998;2023-03-03T02:31:36;-0.80;99.90
48946;DHT22;34999;50.940;3.998;2023-03-03T02:34:04;-0.80;99.90
48946;DHT22;34999;50.940;3.998;2023-03-03T02:36:34;-0.80;99.90
48946;DHT22;34999;50.940;3.998;2023-03-03T02:39:06;-0.80;99.90
48946;DHT22;34999;50.940;3.998;2023-03-03T02:41:39;-0.80;99.90
48946;DHT22;34999;50.940;3.998;2023-03-03T02:44:11;-0.80;99.90
48946;DHT22;34999;50.940;3.998;2023-03-03T02:46:41;-0.80;99.90
48946;DHT22;34999;50.940;3.998;2023-03-03T02:49:13;-0.80;99.90
48946;DHT22;34999;50.940;3.998;2023-03-03T02:51:42;-0.90;99.90
48946;DHT22;34999;50.940;3.998;2023-03-03T02:54:12;-0.90;99.90
48946;DHT22;34999;50.940;3.998;2023-03-03T02:56:42;-0.90;99.90
48946;DHT22;34999;50.940;3.998;2023-03-03T02:59:11;-0.90;99.90
48946;DHT22;34999;50.940;3.998;2023-03-03T03:01:40;-0.90;99.90
48946;DHT22;34999;50.940;3.998;2023-03-03T03:04:10;-0.90;99.90
48946;DHT22;34999;50.940;3.998;2023-03-03T03:06:38;-0.90;99.90
48946;DHT22;34999;50.940;3.998;2023-03-03T03:09:07;-0.90;99.90
48946;DHT22;34999;50.940;3.998;2023-03-03T03:11:36;-0.90;99.90
48946;DHT22;34999;50.940;3.998;2023-03-03T03:14:09;-0.90;99.90
48946;DHT22;34999;50.940;3.998;2023-03-03T03:16:38;-0.90;99.90
48946;DHT22;34999;50.940;3.998;2023-03-03T03:19:07;-0.80;99.90
48946;DHT22;34999;50.940;3.998;2023-03-03T03:21:36;-0.80;99.90
48946;DHT22;34999;50.940;3.998;2023-03-03T03:24:07;-0.80;99.90
48946;DHT22;34999;50.940;3.998;2023-03-03T03:26:35;-0.80;99.90
48946;DHT22;34999;50.940;3.998;2023-03-03T03:29:05;-0.80;99.90
48946;DHT22;34999;50.940;3.998;2023-03-03T03:31:34;-0.90;99.90
48946;DHT22;34999;50.940;3.998;2023-03-03T03:34:02;-0.90;99.90
48946;DHT22;34999;50.940;3.998;2023-03-03T03:36:30;-0.90;99.90
48946;DHT22;34999;50.940;3.998;2023-03-03T03:38:59;-0.90;99.90
48946;DHT22;34999;50.940;3.998;2023-03-03T03:41:28;-0.90;99.90
48946;DHT22;34999;50.940;3.998;2023-03-03T03:43:56;-0.90;99.90
48946;DHT22;34999;50.940;3.998;2023-03-03T03:46:26;-0.90;99.90
48946;DHT22;34999;50.940;3.998;2023-03-03T03:48:54;-0.80;99.90
48946;DHT22;34999;50.940;3.998;2023-03-03T03:51:22;-0.80;99.90
48946;DHT22;34999;50.940;3.998;2023-03-03T03:53:51;-0.80;99.90
48946;DHT22;34999;50.940;3.998;2023-03-03T03:56:19;-0.80;99.90
48946;DHT22;34999;50.940;3.998;2023-03-03T03:58:47;-0.80;99.90
48946;DHT22;34999;50.940;3.998;2023-03-03T04:01:15;-0.80;99.90
48946;DHT22;34999;50.940;3.998;2023-03-03T04:03:44;-0.80;99.90
48946;DHT22;34999;50.940;3.998;2023-03-03T04:06:13;-0.70;99.90
48946;DHT22;34999;50.940;3.998;2023-03-03T04:08:41;-0.70;99.90
48946;DHT22;34999;50.940;3.998;2023-03-03T04:11:09;-0.70;99.90
48946;DHT22;34999;50.940;3.998;2023-03-03T04:13:37;-0.70;99.90
48946;DHT22;34999;50.940;3.998;2023-03-03T04:16:06;-0.70;99.90
48946;DHT22;34999;50.940;3.998;2023-03-03T04:18:34;-0.80;99.90
48946;DHT22;34999;50.940;3.998;2023-03-03T04:21:04;-0.80;99.90
48946;DHT22;34999;50.940;3.998;2023-03-03T04:23:33;-0.80;99.90
48946;DHT22;34999;50.940;3.998;2023-03-03T04:26:01;-0.90;99.90
48946;DHT22;34999;50.940;3.998;2023-03-03T04:28:29;-0.90;99.90
48946;DHT22;34999;50.940;3.998;2023-03-03T04:30:57;-0.90;99.90
48946;DHT22;34999;50.940;3.998;2023-03-03T04:33:26;-0.90;99.90
48946;DHT22;34999;50.940;3.998;2023-03-03T04:35:54;-0.90;99.90
48946;DHT22;34999;50.940;3.998;2023-03-03T04:38:24;-0.90;99.90
48946;DHT22;34999;50.940;3.998;2023-03-03T04:40:53;-1.00;99.90
48946;DHT22;34999;50.940;3.998;2023-03-03T04:43:21;-1.00;99.90
48946;DHT22;34999;50.940;3.998;2023-03-03T04:45:49;-1.00;99.90
48946;DHT22;34999;50.940;3.998;2023-03-03T04:48:18;-1.00;99.90
48946;DHT22;34999;50.940;3.998;2023-03-03T04:50:46;-1.00;99.90
48946;DHT22;34999;50.940;3.998;2023-03-03T04:53:14;-1.00;99.90
48946;DHT22;34999;50.940;3.998;2023-03-03T04:55:44;-1.00;99.90
48946;DHT22;34999;50.940;3.998;2023-03-03T04:58:12;-1.00;99.90
48946;DHT22;34999;50.940;3.998;2023-03-03T05:00:41;-1.00;99.90
48946;DHT22;34999;50.940;3.998;2023-03-03T05:03:11;-0.90;99.90
48946;DHT22;34999;50.940;3.998;2023-03-03T05:05:39;-0.90;99.90
48946;DHT22;34999;50.940;3.998;2023-03-03T05:08:08;-0.90;99.90
48946;DHT22;34999;50.940;3.998;2023-03-03T05:10:36;-0.90;99.90
48946;DHT22;34999;50.940;3.998;2023-03-03T05:13:06;-0.90;99.90
48946;DHT22;34999;50.940;3.998;2023-03-03T05:15:35;-0.90;99.90
48946;DHT22;34999;50.940;3.998;2023-03-03T05:18:03;-0.80;99.90
48946;DHT22;34999;50.940;3.998;2023-03-03T05:20:31;-0.70;99.90
48946;DHT22;34999;50.940;3.998;2023-03-03T05:23:00;-0.60;99.90
48946;DHT22;34999;50.940;3.998;2023-03-03T05:25:28;-0.50;99.90
48946;DHT22;34999;50.940;3.998;2023-03-03T05:27:56;-0.40;99.90
48946;DHT22;34999;50.940;3.998;2023-03-03T05:30:26;-0.20;99.90
48946;DHT22;34999;50.940;3.998;2023-03-03T05:32:54;0.00;99.90
48946;DHT22;34999;50.940;3.998;2023-03-03T05:35:25;0.10;99.90
48946;DHT22;34999;50.940;3.998;2023-03-03T05:37:53;0.10;99.90
48946;DHT22;34999;50.940;3.998;2023-03-03T05:40:24;0.20;99.90
48946;DHT22;34999;50.940;3.998;2023-03-03T05:42:52;0.30;99.90
48946;DHT22;34999;50.940;3.998;2023-03-03T05:45:21;0.30;99.90
48946;DHT22;34999;50.940;3.998;2023-03-03T05:47:51;0.30;99.90
48946;DHT22;34999;50.940;3.998;2023-03-03T05:50:21;0.40;99.90
48946;DHT22;34999;50.940;3.998;2023-03-03T05:52:50;0.40;99.90
48946;DHT22;34999;50.940;3.998;2023-03-03T05:55:19;0.40;99.90
48946;DHT22;34999;50.940;3.998;2023-03-03T05:57:47;0.40;99.90
48946;DHT22;34999;50.940;3.998;2023-03-03T06:00:16;0.50;99.90
48946;DHT22;34999;50.940;3.998;2023-03-03T06:02:44;0.50;99.90
48946;DHT22;34999;50.940;3.998;2023-03-03T06:05:14;0.50;99.90
48946;DHT22;34999;50.940;3.998;2023-03-03T06:07:42;0.50;99.90
48946;DHT22;34999;50.940;3.998;2023-03-03T06:10:11;0.50;99.90
48946;DHT22;34999;50.940;3.998;2023-03-03T06:12:39;0.50;99.90
48946;DHT22;34999;50.940;3.998;2023-03-03T06:15:08;0.60;99.90
48946;DHT22;34999;50.940;3.998;2023-03-03T06:17:37;0.50;99.90
48946;DHT22;34999;50.940;3.998;2023-03-03T06:20:06;0.50;99.90
48946;DHT22;34999;50.940;3.998;2023-03-03T06:22:55;0.50;99.90
48946;DHT22;34999;50.940;3.998;2023-03-03T06:25:23;0.50;99.90
48946;DHT22;34999;50.940;3.998;2023-03-03T06:27:51;0.50;99.90
48946;DHT22;34999;50.940;3.998;2023-03-03T06:30:20;0.50;99.90
48946;DHT22;34999;50.940;3.998;2023-03-03T06:32:48;0.50;99.90
48946;DHT22;34999;50.940;3.998;2023-03-03T06:35:16;0.60;99.90
48946;DHT22;34999;50.940;3.998;2023-03-03T06:37:45;0.60;99.90
48946;DHT22;34999;50.940;3.998;2023-03-03T06:40:18;0.60;99.90
48946;DHT22;34999;50.940;3.998;2023-03-03T06:42:46;0.60;99.90
48946;DHT22;34999;50.940;3.998;2023-03-03T06:45:14;0.60;99.90
48946;DHT22;34999;50.940;3.998;2023-03-03T06:47:43;0.60;99.90
48946;DHT22;34999;50.940;3.998;2023-03-03T06:50:11;0.70;99.90
48946;DHT22;34999;50.940;3.998;2023-03-03T06:52:39;0.60;99.90
48946;DHT22;34999;50.940;3.998;2023-03-03T06:55:12;0.60;99.90
48946;DHT22;34999;50.940;3.998;2023-03-03T06:57:42;0.60;99.90
48946;DHT22;34999;50.940;3.998;2023-03-03T07:00:21;0.60;99.90
48946;DHT22;34999;50.940;3.998;2023-03-03T07:02:57;0.60;99.90
48946;DHT22;34999;50.940;3.998;2023-03-03T07:05:27;0.60;99.90
48946;DHT22;34999;50.940;3.998;2023-03-03T07:07:56;0.60;99.90
48946;DHT22;34999;50.940;3.998;2023-03-03T07:10:27;0.70;99.90
48946;DHT22;34999;50.940;3.998;2023-03-03T07:13:14;0.70;99.90
48946;DHT22;34999;50.940;3.998;2023-03-03T07:15:44;0.70;99.90
48946;DHT22;34999;50.940;3.998;2023-03-03T07:18:24;0.70;99.90
48946;DHT22;34999;50.940;3.998;2023-03-03T07:20:56;0.80;99.90
48946;DHT22;34999;50.940;3.998;2023-03-03T07:23:26;0.80;99.90
48946;DHT22;34999;50.940;3.998;2023-03-03T07:25:54;0.80;99.90
48946;DHT22;34999;50.940;3.998;2023-03-03T07:28:26;0.80;99.90
48946;DHT22;34999;50.940;3.998;2023-03-03T07:30:56;0.80;99.90
48946;DHT22;34999;50.940;3.998;2023-03-03T07:33:26;0.80;99.90
48946;DHT22;34999;50.940;3.998;2023-03-03T07:35:56;0.90;99.90
48946;DHT22;34999;50.940;3.998;2023-03-03T07:38:30;0.90;99.90
48946;DHT22;34999;50.940;3.998;2023-03-03T07:41:00;0.90;99.90
48946;DHT22;34999;50.940;3.998;2023-03-03T07:43:35;1.00;99.90
48946;DHT22;34999;50.940;3.998;2023-03-03T07:46:26;1.00;99.90
48946;DHT22;34999;50.940;3.998;2023-03-03T07:48:56;1.20;99.90
48946;DHT22;34999;50.940;3.998;2023-03-03T07:51:27;1.20;99.90
48946;DHT22;34999;50.940;3.998;2023-03-03T07:54:10;1.20;99.90
48946;DHT22;34999;50.940;3.998;2023-03-03T07:56:41;1.20;99.90
48946;DHT22;34999;50.940;3.998;2023-03-03T07:59:19;1.20;99.90
48946;DHT22;34999;50.940;3.998;2023-03-03T08:01:51;1.30;99.90
48946;DHT22;34999;50.940;3.998;2023-03-03T08:04:23;1.30;99.90
48946;DHT22;34999;50.940;3.998;2023-03-03T08:06:55;1.40;99.90
48946;DHT22;34999;50.940;3.998;2023-03-03T08:09:36;1.40;99.90
48946;DHT22;34999;50.940;3.998;2023-03-03T08:15:19;1.50;99.90
48946;DHT22;34999;50.940;3.998;2023-03-03T08:17:51;1.60;99.90
48946;DHT22;34999;50.940;3.998;2023-03-03T08:20:47;1.70;99.90
48946;DHT22;34999;50.940;3.998;2023-03-03T08:23:17;1.70;99.90
48946;DHT22;34999;50.940;3.998;2023-03-03T08:25:47;1.70;99.90
48946;DHT22;34999;50.940;3.998;2023-03-03T08:28:34;1.80;99.90
48946;DHT22;34999;50.940;3.998;2023-03-03T08:31:04;1.80;99.90
48946;DHT22;34999;50.940;3.998;2023-03-03T08:33:50;1.80;99.90
48946;DHT22;34999;50.940;3.998;2023-03-03T08:36:19;1.80;99.90
48946;DHT22;34999;50.940;3.998;2023-03-03T08:38:47;1.90;99.90
48946;DHT22;34999;50.940;3.998;2023-03-03T08:41:18;1.90;99.90
48946;DHT22;34999;50.940;3.998;2023-03-03T08:43:47;1.90;99.90
48946;DHT22;34999;50.940;3.998;2023-03-03T08:46:16;2.00;99.90
48946;DHT22;34999;50.940;3.998;2023-03-03T08:48:44;2.10;99.90
48946;DHT22;34999;50.940;3.998;2023-03-03T08:51:13;2.10;99.90
48946;DHT22;34999;50.940;3.998;2023-03-03T08:53:41;2.10;99.90
48946;DHT22;34999;50.940;3.998;2023-03-03T08:56:09;2.20;99.90
48946;DHT22;34999;50.940;3.998;2023-03-03T08:58:37;2.20;99.90
48946;DHT22;34999;50.940;3.998;2023-03-03T09:01:26;2.20;99.90
48946;DHT22;34999;50.940;3.998;2023-03-03T09:03:55;2.20;99.90
48946;DHT22;34999;50.940;3.998;2023-03-03T09:06:25;2.30;99.90
48946;DHT22;34999;50.940;3.998;2023-03-03T09:08:54;2.20;99.90
48946;DHT22;34999;50.940;3.998;2023-03-03T09:11:25;2.20;99.90
48946;DHT22;34999;50.940;3.998;2023-03-03T09:13:58;2.20;99.90
48946;DHT22;34999;50.940;3.998;2023-03-03T09:16:39;2.20;99.90
48946;DHT22;34999;50.940;3.998;2023-03-03T09:19:22;2.30;99.90
48946;DHT22;34999;50.940;3.998;2023-03-03T09:21:52;2.40;99.90
48946;DHT22;34999;50.940;3.998;2023-03-03T09:24:25;2.50;99.90
48946;DHT22;34999;50.940;3.998;2023-03-03T09:26:54;2.40;99.90
48946;DHT22;34999;50.940;3.998;2023-03-03T09:29:25;2.40;99.90
48946;DHT22;34999;50.940;3.998;2023-03-03T09:31:57;2.40;99.90
48946;DHT22;34999;50.940;3.998;2023-03-03T09:34:37;2.40;99.90
48946;DHT22;34999;50.940;3.998;2023-03-03T09:37:19;2.40;99.90
48946;DHT22;34999;50.940;3.998;2023-03-03T09:39:50;2.50;99.90
48946;DHT22;34999;50.940;3.998;2023-03-03T09:45:43;2.60;99.90
48946;DHT22;34999;50.940;3.998;2023-03-03T09:48:39;2.80;99.90
48946;DHT22;34999;50.940;3.998;2023-03-03T09:51:23;3.00;99.90
48946;DHT22;34999;50.940;3.998;2023-03-03T09:54:07;3.00;99.90
48946;DHT22;34999;50.940;3.998;2023-03-03T09:56:41;3.00;99.90
48946;DHT22;34999;50.940;3.998;2023-03-03T09:59:24;3.10;99.90
48946;DHT22;34999;50.940;3.998;2023-03-03T10:02:08;3.30;99.90
48946;DHT22;34999;50.940;3.998;2023-03-03T10:05:04;3.20;99.90
48946;DHT22;34999;50.940;3.998;2023-03-03T10:07:46;3.30;99.90
48946;DHT22;34999;50.940;3.998;2023-03-03T10:10:24;3.30;99.90
48946;DHT22;34999;50.940;3.998;2023-03-03T10:13:07;3.50;99.90
48946;DHT22;34999;50.940;3.998;2023-03-03T10:15:46;3.60;99.90
48946;DHT22;34999;50.940;3.998;2023-03-03T10:18:29;3.70;99.90
48946;DHT22;34999;50.940;3.998;2023-03-03T10:21:08;3.80;99.90
48946;DHT22;34999;50.940;3.998;2023-03-03T10:23:53;4.10;99.90
48946;DHT22;34999;50.940;3.998;2023-03-03T10:29:47;4.60;99.90
48946;DHT22;34999;50.940;3.998;2023-03-03T10:32:39;4.80;99.90
48946;DHT22;34999;50.940;3.998;2023-03-03T10:38:42;5.30;99.90
48946;DHT22;34999;50.940;3.998;2023-03-03T10:41:25;5.80;99.90
48946;DHT22;34999;50.940;3.998;2023-03-03T10:44:25;6.20;99.90
48946;DHT22;34999;50.940;3.998;2023-03-03T10:47:04;6.40;99.90
48946;DHT22;34999;50.940;3.998;2023-03-03T10:49:55;6.70;99.90
48946;DHT22;34999;50.940;3.998;2023-03-03T10:52:32;6.40;99.90
48946;DHT22;34999;50.940;3.998;2023-03-03T10:55:39;6.50;99.90
48946;DHT22;34999;50.940;3.998;2023-03-03T11:01:16;5.80;99.90
48946;DHT22;34999;50.940;3.998;2023-03-03T11:04:14;5.50;99.90
48946;DHT22;34999;50.940;3.998;2023-03-03T11:06:50;5.30;99.90
48946;DHT22;34999;50.940;3.998;2023-03-03T11:09:42;5.60;99.90
48946;DHT22;34999;50.940;3.998;2023-03-03T11:12:25;5.70;99.90
48946;DHT22;34999;50.940;3.998;2023-03-03T11:15:06;6.20;99.90
48946;DHT22;34999;50.940;3.998;2023-03-03T11:17:47;6.50;99.90
48946;DHT22;34999;50.940;3.998;2023-03-03T11:20:26;6.10;99.90
48946;DHT22;34999;50.940;3.998;2023-03-03T11:23:06;6.00;99.90
48946;DHT22;34999;50.940;3.998;2023-03-03T11:25:44;6.10;99.90
48946;DHT22;34999;50.940;3.998;2023-03-03T11:28:28;6.30;99.90
48946;DHT22;34999;50.940;3.998;2023-03-03T11:31:10;6.80;99.90
48946;DHT22;34999;50.940;3.998;2023-03-03T11:33:46;7.40;99.90
48946;DHT22;34999;50.940;3.998;2023-03-03T11:36:24;7.40;99.90
48946;DHT22;34999;50.940;3.998;2023-03-03T11:38:56;7.40;99.90
48946;DHT22;34999;50.940;3.998;2023-03-03T11:41:30;7.40;99.90
48946;DHT22;34999;50.940;3.998;2023-03-03T11:44:07;7.30;99.90
48946;DHT22;34999;50.940;3.998;2023-03-03T11:46:41;6.80;99.90
48946;DHT22;34999;50.940;3.998;2023-03-03T11:49:18;6.90;99.90
48946;DHT22;34999;50.940;3.998;2023-03-03T11:51:55;6.60;99.90
48946;DHT22;34999;50.940;3.998;2023-03-03T11:54:27;6.00;99.90
48946;DHT22;34999;50.940;3.998;2023-03-03T11:57:10;6.30;99.90
48946;DHT22;34999;50.940;3.998;2023-03-03T12:00:00;6.80;99.90
48946;DHT22;34999;50.940;3.998;2023-03-03T12:02:43;7.80;99.90
48946;DHT22;34999;50.940;3.998;2023-03-03T12:05:22;8.20;99.90
48946;DHT22;34999;50.940;3.998;2023-03-03T12:08:02;8.60;99.90
48946;DHT22;34999;50.940;3.998;2023-03-03T12:10:40;9.30;99.90
48946;DHT22;34999;50.940;3.998;2023-03-03T12:13:17;8.90;99.90
48946;DHT22;34999;50.940;3.998;2023-03-03T12:15:53;8.50;99.90
48946;DHT22;34999;50.940;3.998;2023-03-03T12:18:43;9.00;99.90
48946;DHT22;34999;50.940;3.998;2023-03-03T12:21:25;9.50;99.90
48946;DHT22;34999;50.940;3.998;2023-03-03T12:24:07;10.30;99.90
48946;DHT22;34999;50.940;3.998;2023-03-03T12:26:43;10.90;99.90
48946;DHT22;34999;50.940;3.998;2023-03-03T12:29:24;10.60;99.90
48946;DHT22;34999;50.940;3.998;2023-03-03T12:32:09;10.60;99.90
48946;DHT22;34999;50.940;3.998;2023-03-03T12:34:45;9.80;99.90
48946;DHT22;34999;50.940;3.998;2023-03-03T12:37:45;9.70;99.90
48946;DHT22;34999;50.940;3.998;2023-03-03T12:40:18;9.30;99.90
48946;DHT22;34999;50.940;3.998;2023-03-03T12:43:06;9.30;99.90
48946;DHT22;34999;50.940;3.998;2023-03-03T12:45:46;9.00;99.90
48946;DHT22;34999;50.940;3.998;2023-03-03T12:48:24;8.60;99.90
48946;DHT22;34999;50.940;3.998;2023-03-03T12:51:00;8.20;99.90
48946;DHT22;34999;50.940;3.998;2023-03-03T12:53:59;8.30;99.90
48946;DHT22;34999;50.940;3.998;2023-03-03T12:56:33;8.40;99.90
48946;DHT22;34999;50.940;3.998;2023-03-03T12:59:06;9.00;99.90
48946;DHT22;34999;50.940;3.998;2023-03-03T13:01:47;9.20;99.90
48946;DHT22;34999;50.940;3.998;2023-03-03T13:04:29;9.10;99.90
48946;DHT22;34999;50.940;3.998;2023-03-03T13:07:04;8.90;99.90
48946;DHT22;34999;50.940;3.998;2023-03-03T13:09:44;9.20;99.90
48946;DHT22;34999;50.940;3.998;2023-03-03T13:12:29;9.50;99.90
48946;DHT22;34999;50.940;3.998;2023-03-03T13:15:03;9.00;99.90
48946;DHT22;34999;50.940;3.998;2023-03-03T13:17:36;8.80;99.90
48946;DHT22;34999;50.940;3.998;2023-03-03T13:20:18;8.90;99.90
48946;DHT22;34999;50.940;3.998;2023-03-03T13:22:53;9.00;99.90
48946;DHT22;34999;50.940;3.998;2023-03-03T13:25:33;9.00;99.90
48946;DHT22;34999;50.940;3.998;2023-03-03T13:28:09;9.30;99.90
48946;DHT22;34999;50.940;3.998;2023-03-03T13:30:46;9.50;99.90
48946;DHT22;34999;50.940;3.998;2023-03-03T13:33:19;9.30;99.90
48946;DHT22;34999;50.940;3.998;2023-03-03T13:35:53;9.60;99.90
48946;DHT22;34999;50.940;3.998;2023-03-03T13:38:25;9.30;99.90
48946;DHT22;34999;50.940;3.998;2023-03-03T13:41:01;8.90;99.90
48946;DHT22;34999;50.940;3.998;2023-03-03T13:43:37;8.90;99.90
48946;DHT22;34999;50.940;3.998;2023-03-03T13:46:13;8.90;99.90
48946;DHT22;34999;50.940;3.998;2023-03-03T13:51:43;8.50;99.90
48946;DHT22;34999;50.940;3.998;2023-03-03T13:54:21;8.40;99.90
48946;DHT22;34999;50.940;3.998;2023-03-03T13:57:06;8.80;99.90
48946;DHT22;34999;50.940;3.998;2023-03-03T13:59:47;9.10;99.90
48946;DHT22;34999;50.940;3.998;2023-03-03T14:02:37;9.20;99.90
48946;DHT22;34999;50.940;3.998;2023-03-03T14:05:12;9.10;99.90
48946;DHT22;34999;50.940;3.998;2023-03-03T14:07:51;8.90;99.90
48946;DHT22;34999;50.940;3.998;2023-03-03T14:10:27;8.90;99.90
48946;DHT22;34999;50.940;3.998;2023-03-03T14:13:02;9.00;99.90
48946;DHT22;34999;50.940;3.998;2023-03-03T14:15:33;8.60;99.90
48946;DHT22;34999;50.940;3.998;2023-03-03T14:18:20;8.50;99.90
48946;DHT22;34999;50.940;3.998;2023-03-03T14:20:52;8.60;99.90
48946;DHT22;34999;50.940;3.998;2023-03-03T14:23:26;8.40;99.90
48946;DHT22;34999;50.940;3.998;2023-03-03T14:25:57;8.40;99.90
48946;DHT22;34999;50.940;3.998;2023-03-03T14:28:28;8.70;99.90
48946;DHT22;34999;50.940;3.998;2023-03-03T14:30:57;9.00;99.90
48946;DHT22;34999;50.940;3.998;2023-03-03T14:33:29;8.70;99.90
48946;DHT22;34999;50.940;3.998;2023-03-03T14:36:04;8.80;99.90
48946;DHT22;34999;50.940;3.998;2023-03-03T14:38:40;8.80;99.90
48946;DHT22;34999;50.940;3.998;2023-03-03T14:41:16;8.90;99.90
48946;DHT22;34999;50.940;3.998;2023-03-03T14:43:54;9.10;99.90
48946;DHT22;34999;50.940;3.998;2023-03-03T14:46:33;9.10;99.90
48946;DHT22;34999;50.940;3.998;2023-03-03T14:49:04;9.20;99.90
48946;DHT22;34999;50.940;3.998;2023-03-03T14:51:41;9.00;99.90
48946;DHT22;34999;50.940;3.998;2023-03-03T14:54:20;8.80;99.90
48946;DHT22;34999;50.940;3.998;2023-03-03T14:57:01;8.80;99.90
48946;DHT22;34999;50.940;3.998;2023-03-03T14:59:31;8.90;99.90
48946;DHT22;34999;50.940;3.998;2023-03-03T15:05:21;9.50;99.90
48946;DHT22;34999;50.940;3.998;2023-03-03T15:07:52;9.60;99.90
48946;DHT22;34999;50.940;3.998;2023-03-03T15:10:32;9.70;99.90
48946;DHT22;34999;50.940;3.998;2023-03-03T15:13:31;9.80;99.90
48946;DHT22;34999;50.940;3.998;2023-03-03T15:16:09;9.70;99.90
48946;DHT22;34999;50.940;3.998;2023-03-03T15:22:02;9.70;99.90
48946;DHT22;34999;50.940;3.998;2023-03-03T15:24:39;10.10;99.90
48946;DHT22;34999;50.940;3.998;2023-03-03T15:27:14;10.30;99.90
48946;DHT22;34999;50.940;3.998;2023-03-03T15:29:56;10.20;99.90
48946;DHT22;34999;50.940;3.998;2023-03-03T15:32:32;10.00;99.90
48946;DHT22;34999;50.940;3.998;2023-03-03T15:35:09;9.50;99.90
48946;DHT22;34999;50.940;3.998;2023-03-03T15:37:48;9.10;99.90
48946;DHT22;34999;50.940;3.998;2023-03-03T15:40:25;8.90;99.90
48946;DHT22;34999;50.940;3.998;2023-03-03T15:43:02;8.70;99.90
48946;DHT22;34999;50.940;3.998;2023-03-03T15:45:42;8.70;99.90
48946;DHT22;34999;50.940;3.998;2023-03-03T15:48:27;8.90;99.90
48946;DHT22;34999;50.940;3.998;2023-03-03T15:51:07;9.00;99.90
48946;DHT22;34999;50.940;3.998;2023-03-03T15:53:54;9.10;99.90
48946;DHT22;34999;50.940;3.998;2023-03-03T15:56:29;9.00;99.90
48946;DHT22;34999;50.940;3.998;2023-03-03T16:02:20;8.70;99.90
48946;DHT22;34999;50.940;3.998;2023-03-03T16:04:54;8.60;99.90
48946;DHT22;34999;50.940;3.998;2023-03-03T16:07:31;8.70;99.90
48946;DHT22;34999;50.940;3.998;2023-03-03T16:10:11;8.80;99.90
48946;DHT22;34999;50.940;3.998;2023-03-03T16:12:51;8.90;99.90
48946;DHT22;34999;50.940;3.998;2023-03-03T16:15:40;8.70;99.90
48946;DHT22;34999;50.940;3.998;2023-03-03T16:18:19;8.40;99.90
48946;DHT22;34999;50.940;3.998;2023-03-03T16:20:57;8.10;99.90
48946;DHT22;34999;50.940;3.998;2023-03-03T16:23:35;8.00;99.90
48946;DHT22;34999;50.940;3.998;2023-03-03T16:26:14;7.90;99.90
48946;DHT22;34999;50.940;3.998;2023-03-03T16:28:54;7.90;99.90
48946;DHT22;34999;50.940;3.998;2023-03-03T16:31:33;8.00;99.90
48946;DHT22;34999;50.940;3.998;2023-03-03T16:34:11;8.00;99.90
48946;DHT22;34999;50.940;3.998;2023-03-03T16:36:51;8.00;99.90
48946;DHT22;34999;50.940;3.998;2023-03-03T16:39:27;8.00;99.90
48946;DHT22;34999;50.940;3.998;2023-03-03T16:42:03;7.90;99.90
48946;DHT22;34999;50.940;3.998;2023-03-03T16:44:42;7.70;99.90
48946;DHT22;34999;50.940;3.998;2023-03-03T16:47:22;7.50;99.90
48946;DHT22;34999;50.940;3.998;2023-03-03T16:50:06;7.40;99.90
48946;DHT22;34999;50.940;3.998;2023-03-03T16:52:41;7.30;99.90
48946;DHT22;34999;50.940;3.998;2023-03-03T16:55:14;7.20;99.90
48946;DHT22;34999;50.940;3.998;2023-03-03T16:57:52;7.20;99.90